Masset, Canada
Current Conditions -  °F | °C
As of 6:00 PM on Friday 24 Oct 2014 (Local Time) from CZMT Reporting Station
Overcast Overcast  
Wind Chill: 50°   Ceiling: 1200
Heat Index: 50°   Visibility: 15mi
Dew Point: 45°   Wind: 13mph
Humidity: 82%   Direction: 150°SSE
Pressure: 29.78"   Gusts: 21mph
Location:  54.02°N, 132.15°W
Report Text: CZMT 250100Z 15011G18KT 110V170 15SM BKN012 BKN040 BKN095 OVC200 10/07 A2978 RMK SC5SC1AC1CI1 LAST OBS/NEXT 251400 UTC SLP086
Loading
Personal Weather Stations






























Interactive Weather Map New forecast layout! Learn more

10-Day Weather Forecast

Advertisements
Track Severe Weather on mobile